createdAt,value
2019-04-20T20:25:57.157Z,12.30
2019-04-20T20:28:45.522Z,12.40
2019-04-20T20:45:29.514Z,13.00
2019-04-20T20:48:15.437Z,12.80
2019-04-20T20:58:18.313Z,13.10
2019-04-20T21:32:23.583Z,12.90
2019-04-20T21:35:03.055Z,13.30
2019-04-20T21:37:37.051Z,13.70
2019-04-20T21:40:21.650Z,14.20
2019-04-20T21:43:13.174Z,14.80
2019-04-20T21:46:08.975Z,14.90
2019-04-20T21:49:04.249Z,14.80
2019-04-20T21:51:37.285Z,15.10
2019-04-20T21:57:31.330Z,15.10
2019-04-20T22:00:25.004Z,15.10
2019-04-20T22:02:56.987Z,15.10
2019-04-20T22:05:40.492Z,15.30
2019-04-20T22:08:16.062Z,15.60
2019-04-20T22:10:53.516Z,15.90
2019-04-20T22:13:33.399Z,16.00
2019-04-20T22:16:08.794Z,16.10
2019-04-20T22:18:54.418Z,15.90
2019-04-20T22:21:25.431Z,15.80
2019-04-20T22:24:06.805Z,15.50
2019-04-20T22:26:39.413Z,15.40
2019-04-20T22:29:12.027Z,15.20
2019-04-20T22:31:57.389Z,15.40
2019-04-20T22:34:29.700Z,15.60
2019-04-20T22:37:04.388Z,15.70
2019-04-20T22:39:52.333Z,15.90
2019-04-20T22:42:37.846Z,16.00
2019-04-20T22:45:13.348Z,16.20
2019-04-20T22:47:55.040Z,16.30
2019-04-20T22:50:42.281Z,16.60
2019-04-20T22:53:26.111Z,17.00
2019-04-20T22:56:12.376Z,17.30
2019-04-20T22:58:40.400Z,17.20
2019-04-20T23:01:19.332Z,17.00
2019-04-20T23:03:45.015Z,17.20
2019-04-20T23:06:25.372Z,17.00
2019-04-20T23:09:10.223Z,16.60
2019-04-20T23:11:42.103Z,16.40
2019-04-20T23:14:20.300Z,16.30
2019-04-20T23:17:12.344Z,16.50
2019-04-20T23:20:19.786Z,16.30
2019-04-20T23:26:32.523Z,16.70
2019-04-20T23:29:41.493Z,16.90
2019-04-20T23:32:39.826Z,16.50
2019-04-20T23:35:18.525Z,16.80
2019-04-20T23:38:11.028Z,17.20
2019-04-20T23:40:53.908Z,17.20
2019-04-20T23:43:54.923Z,17.10
2019-04-20T23:47:18.089Z,17.20
2019-04-20T23:50:12.343Z,17.10
2019-04-20T23:52:59.531Z,17.00
2019-04-20T23:55:43.693Z,16.80
2019-04-20T23:58:39.820Z,16.80
